Curtis Field
KBBD : now visible

Airfield :











YOU CAN JOIN US ON...

 
LOGIN :

Register | Disclaimer

   EN    FR    IT 

 









Legend :    VFR   Marginal VFR   IFR   Intensive IFR   Very Intensive IFR
Visi :
Ceiling :
>= 8 km
>= 3000ft
5 to 8 km
1000 to 3000 ft
1500m to 5 km
500 to 1000 ft
800 to 1500m
200 to 500 ft
< 800m
< 200 ft
Symbols :   Thunderstorms  Fog  Heavy snow  Heavy precipitations  Wind > 20 kt






- Airport Elevation : 1827 ft


KBBD - Curtis Field

CURRENT METAR :
  • 202115Z AUTO 16010KT 10SM CLR 35/17 A2976 RMK AO2

EXPIRED METARs :
  • 202055Z AUTO 17013G19KT 10SM FEW065 34/17 A2976 RMK AO2
  • 202035Z AUTO 16011G19KT 10SM CLR 34/16 A2977 RMK AO2
  • 202015Z AUTO 17014KT 130V200 10SM CLR 34/16 A2977 RMK AO2
  • 201955Z AUTO 19013G19KT 10SM CLR 34/15 A2978 RMK AO2
  • 201935Z AUTO 19014G19KT 10SM CLR 34/15 A2978 RMK AO2
  • 201915Z AUTO 20010G16KT 10SM CLR 33/14 A2979 RMK AO2
  • 201855Z AUTO 18011G19KT 10SM CLR 33/16 A2980 RMK AO2
  • 201835Z AUTO 21014G22KT 10SM CLR 33/17 A2980 RMK AO2

TAF KBBD
Valid from the 20 at 18:00 until the 21 at 18:00 UTC


201722Z 2018/2118 18013G20KT P6SM SCT250
FM210200 16010KT P6SM SKC
FM210900 16009KT P6SM BKN018
FM211500 16010G16KT P6SM BKN022
KZHU FIR / North America



MET'MAP, your aeronautical weather chart ! - Copyright ORBIFLY December 2007 - Disclaimer

ORBIFLY MET'MAP TEAM :

Programming & Development : Alexandra Zaïnal
Concept & original design : Baudouin d'Aumeries
Assistance for programming : Marc-Olivier Méhu
Technical & hardware support : Manuel Goepfert

Contact : metmap@orbifly.com




SOURCES & CREDITS :

   NOAA       Earth
Advisory